Time;durP1;ratioP1;P1;durP2;ratioP2;P2;SDS_P1;SDS_P2;PMS_P1;PMS_P2;Temp;Humidity;BMP_temperature;BMP_pressure;BME280_temperature;BME280_humidity;BME280_pressure;Samples;Min_cycle;Max_cycle;Signal;HPM_P1;HPM_P2
2023/12/13 00:01:29;;;;;;;7.10;2.33;;;16.10;92.80;;;;;;5034992;28;20029;-85
2023/12/13 00:03:55;;;;;;;5.70;1.92;;;16.20;92.50;;;;;;5034689;28;20043;-85
2023/12/13 00:06:20;;;;;;;7.38;2.65;;;16.20;92.40;;;;;;5034613;28;20021;-86
2023/12/13 00:08:46;;;;;;;8.80;2.72;;;16.20;92.30;;;;;;5034619;28;20514;-84
2023/12/13 00:11:12;;;;;;;6.50;2.42;;;16.30;92.20;;;;;;5034346;28;20045;-84
2023/12/13 00:13:37;;;;;;;9.10;2.05;;;16.30;92.00;;;;;;5034062;28;20045;-84
2023/12/13 00:16:03;;;;;;;8.27;2.25;;;16.30;91.80;;;;;;5038431;28;20034;-84
2023/12/13 00:18:30;;;;;;;7.13;2.22;;;16.40;91.80;;;;;;5035238;28;20155;-83
2023/12/13 00:20:56;;;;;;;6.75;2.03;;;16.50;91.80;;;;;;5034151;28;20364;-82
2023/12/13 00:23:22;;;;;;;9.13;2.55;;;16.50;91.70;;;;;;5034389;28;20030;-83
2023/12/13 00:25:48;;;;;;;11.18;3.33;;;16.50;91.80;;;;;;5033891;28;20041;-84
2023/12/13 00:28:14;;;;;;;7.03;2.47;;;16.50;91.80;;;;;;5033966;28;20118;-84
2023/12/13 00:30:39;;;;;;;7.63;2.30;;;16.50;92.10;;;;;;5016394;28;20418;-83
2023/12/13 00:33:05;;;;;;;10.30;2.67;;;16.50;91.80;;;;;;5034203;28;20068;-82
2023/12/13 00:35:31;;;;;;;7.35;2.58;;;16.50;91.80;;;;;;5034112;28;20425;-83
2023/12/13 00:37:57;;;;;;;16.90;3.08;;;16.50;91.80;;;;;;5033903;28;20060;-84
2023/12/13 00:40:24;;;;;;;11.80;2.92;;;16.40;92.20;;;;;;5033556;28;20052;-83
2023/12/13 00:42:50;;;;;;;9.07;3.17;;;16.40;92.10;;;;;;5015875;28;20437;-83
2023/12/13 00:45:16;;;;;;;8.07;3.10;;;16.40;92.20;;;;;;5033540;28;20580;-82
2023/12/13 00:47:42;;;;;;;13.05;2.90;;;16.40;92.30;;;;;;5001040;28;20030;-75
2023/12/13 00:50:09;;;;;;;10.73;3.22;;;16.40;92.30;;;;;;5015729;28;20056;-83
2023/12/13 00:52:35;;;;;;;13.75;2.78;;;16.40;92.30;;;;;;5017841;28;20038;-82
2023/12/13 00:55:01;;;;;;;10.02;3.00;;;16.40;92.50;;;;;;5015066;28;20026;-82
2023/12/13 00:57:27;;;;;;;11.00;2.60;;;16.30;92.40;;;;;;4994714;28;20049;-83
2023/12/13 00:59:53;;;;;;;8.10;3.10;;;16.30;92.60;;;;;;4994525;28;20045;-83
2023/12/13 01:02:18;;;;;;;13.90;3.30;;;16.30;92.60;;;;;;4994020;28;20022;-82
2023/12/13 01:04:44;;;;;;;8.70;3.17;;;16.30;92.70;;;;;;4994617;28;20551;-83
2023/12/13 01:07:10;;;;;;;9.02;2.60;;;16.30;92.70;;;;;;4994987;28;20395;-84
2023/12/13 01:09:36;;;;;;;8.13;2.72;;;16.30;92.70;;;;;;4995917;28;20093;-82
2023/12/13 01:12:02;;;;;;;9.82;3.53;;;16.40;92.50;;;;;;5001453;28;20058;-82
2023/12/13 01:14:28;;;;;;;10.23;2.55;;;16.40;92.50;;;;;;4998322;28;20073;-83
2023/12/13 01:16:54;;;;;;;13.50;2.83;;;16.40;92.50;;;;;;4994465;28;20494;-83
2023/12/13 01:19:20;;;;;;;8.98;2.75;;;16.40;92.50;;;;;;4995167;28;20097;-83
2023/12/13 01:21:46;;;;;;;6.53;2.72;;;16.40;92.60;;;;;;4998123;28;20085;-82
2023/12/13 01:24:11;;;;;;;9.57;2.80;;;16.40;92.50;;;;;;4995147;28;20054;-83
2023/12/13 01:26:37;;;;;;;8.98;2.42;;;16.50;92.50;;;;;;4993898;28;20030;-84
2023/12/13 01:29:03;;;;;;;11.05;2.30;;;16.50;92.50;;;;;;4993444;28;20121;-82
2023/12/13 01:31:28;;;;;;;10.52;3.15;;;16.60;92.50;;;;;;4993754;28;20507;-84
2023/12/13 01:33:54;;;;;;;10.88;2.75;;;16.60;92.40;;;;;;4993556;28;20137;-84
2023/12/13 01:36:20;;;;;;;17.85;3.08;;;16.60;92.50;;;;;;4993555;28;20030;-82
2023/12/13 01:38:45;;;;;;;9.85;2.22;;;16.70;92.40;;;;;;4994083;28;20456;-83
2023/12/13 01:41:11;;;;;;;9.38;2.42;;;16.70;92.50;;;;;;4993591;28;20030;-83
2023/12/13 01:43:37;;;;;;;15.25;2.70;;;16.60;92.50;;;;;;4994491;28;20440;-84
2023/12/13 01:46:03;;;;;;;9.13;2.30;;;16.60;92.70;;;;;;4994138;28;20049;-84
2023/12/13 01:48:29;;;;;;;10.05;2.65;;;16.60;92.60;;;;;;4995771;28;20113;-82
2023/12/13 01:50:55;;;;;;;8.32;2.50;;;16.60;92.60;;;;;;4995533;28;20037;-84
2023/12/13 01:53:25;;;;;;;8.73;2.47;;;16.60;92.60;;;;;;4994877;28;20034;-83
2023/12/13 01:55:53;;;;;;;9.23;2.40;;;16.60;92.50;;;;;;4995436;28;20046;-84
2023/12/13 01:58:19;;;;;;;15.25;2.88;;;16.60;92.50;;;;;;4995519;28;20031;-82
2023/12/13 02:00:46;;;;;;;13.18;2.55;;;16.60;92.50;;;;;;4994015;28;20164;-83
2023/12/13 02:03:12;;;;;;;9.85;2.45;;;16.60;92.50;;;;;;4993496;28;20125;-83
2023/12/13 02:05:39;;;;;;;7.97;2.63;;;16.50;92.50;;;;;;4993289;28;20133;-84
2023/12/13 02:08:05;;;;;;;8.80;2.60;;;16.50;92.70;;;;;;4993382;28;20043;-84
2023/12/13 02:10:31;;;;;;;8.77;3.15;;;16.40;92.60;;;;;;4996570;28;20089;-84
2023/12/13 02:12:57;;;;;;;9.10;2.40;;;16.40;92.60;;;;;;5014183;28;20045;-84
2023/12/13 02:15:24;;;;;;;10.25;2.42;;;16.50;92.60;;;;;;5016439;28;20069;-83
2023/12/13 02:17:51;;;;;;;10.15;2.20;;;16.40;92.50;;;;;;5016628;28;20030;-83
2023/12/13 02:20:17;;;;;;;10.85;2.55;;;16.40;92.50;;;;;;5016496;28;20132;-83
2023/12/13 02:22:42;;;;;;;12.45;2.83;;;16.50;92.60;;;;;;5016174;28;20109;-82
2023/12/13 02:25:16;;;;;;;8.48;2.30;;;16.40;92.40;;;;;;5016739;28;20049;-83
2023/12/13 02:27:42;;;;;;;10.75;2.45;;;16.40;92.40;;;;;;5016341;28;20069;-84
2023/12/13 02:30:09;;;;;;;10.45;2.70;;;16.40;92.40;;;;;;5016396;28;20029;-82
2023/12/13 02:32:36;;;;;;;9.48;2.03;;;16.40;92.30;;;;;;5016291;28;20045;-83
2023/12/13 02:35:03;;;;;;;8.65;2.08;;;16.40;92.40;;;;;;5016134;28;20037;-83
2023/12/13 02:37:29;;;;;;;11.52;2.78;;;16.40;92.40;;;;;;5016073;28;20065;-82
2023/12/13 02:39:56;;;;;;;8.15;2.40;;;16.40;92.30;;;;;;5016316;28;20077;-82
2023/12/13 02:42:22;;;;;;;11.18;2.78;;;16.40;92.40;;;;;;5016160;28;20377;-84
2023/12/13 02:44:48;;;;;;;11.95;2.60;;;16.40;92.30;;;;;;5016321;28;20044;-82
2023/12/13 02:47:14;;;;;;;10.32;2.42;;;16.50;92.30;;;;;;5016183;28;20190;-82
2023/12/13 02:49:39;;;;;;;17.73;2.85;;;16.40;92.30;;;;;;4998071;28;20107;-84
2023/12/13 02:52:05;;;;;;;8.63;2.20;;;16.40;92.30;;;;;;5015908;28;20029;-83
2023/12/13 02:54:31;;;;;;;7.28;2.03;;;16.40;92.30;;;;;;5015786;28;20397;-82
2023/12/13 02:56:57;;;;;;;15.68;3.03;;;16.40;92.30;;;;;;5015692;28;20109;-82
2023/12/13 02:59:22;;;;;;;11.13;2.38;;;16.40;92.40;;;;;;5015430;28;20049;-84
2023/12/13 03:01:48;;;;;;;12.55;2.33;;;16.30;92.30;;;;;;5015524;28;20439;-83
2023/12/13 03:04:14;;;;;;;10.35;2.00;;;16.30;92.50;;;;;;5015874;28;20061;-83
2023/12/13 03:06:39;;;;;;;8.93;2.13;;;16.30;92.50;;;;;;4997864;28;20030;-82
2023/12/13 03:09:05;;;;;;;7.60;2.10;;;16.20;92.50;;;;;;5015593;28;20030;-79
2023/12/13 03:11:31;;;;;;;8.73;2.30;;;16.20;92.40;;;;;;5015287;28;20074;-83
2023/12/13 03:13:57;;;;;;;6.15;1.80;;;16.20;92.40;;;;;;5016489;28;20073;-83
2023/12/13 03:16:24;;;;;;;7.85;2.30;;;16.20;92.30;;;;;;5024298;28;20061;-83
2023/12/13 03:18:50;;;;;;;10.05;2.00;;;16.20;92.40;;;;;;5037856;28;20050;-83
2023/12/13 03:21:16;;;;;;;7.57;2.45;;;16.20;92.40;;;;;;5034328;28;20026;-70
2023/12/13 03:23:41;;;;;;;10.20;2.50;;;16.20;92.40;;;;;;5038431;28;20076;-80
2023/12/13 03:26:07;;;;;;;8.88;2.17;;;16.20;92.40;;;;;;5024646;28;20041;-84
2023/12/13 03:28:33;;;;;;;10.20;2.42;;;16.20;92.40;;;;;;5015374;28;20033;-84
2023/12/13 03:30:58;;;;;;;11.05;2.58;;;16.30;92.40;;;;;;5015197;28;20038;-84
2023/12/13 03:33:24;;;;;;;12.73;2.85;;;16.30;92.30;;;;;;5015431;28;20068;-84
2023/12/13 03:35:50;;;;;;;11.32;2.42;;;16.30;92.40;;;;;;5014752;28;20550;-84
2023/12/13 03:38:15;;;;;;;9.77;2.55;;;16.40;92.40;;;;;;5020368;28;20091;-82
2023/12/13 03:40:41;;;;;;;7.30;2.10;;;16.30;92.30;;;;;;5022820;28;20501;-81
2023/12/13 03:43:07;;;;;;;9.93;2.20;;;16.40;92.40;;;;;;5005396;28;20210;-83
2023/12/13 03:45:32;;;;;;;10.05;2.78;;;16.40;92.20;;;;;;5023085;28;20030;-84
2023/12/13 03:47:58;;;;;;;10.80;2.38;;;16.40;92.20;;;;;;5017005;28;20030;-83
2023/12/13 03:50:24;;;;;;;10.20;1.95;;;16.30;92.30;;;;;;5015328;28;20232;-82
2023/12/13 03:52:49;;;;;;;12.00;2.78;;;16.30;92.30;;;;;;5015491;28;20502;-83
2023/12/13 03:55:15;;;;;;;14.15;2.95;;;16.30;92.40;;;;;;5015620;28;20034;-82
2023/12/13 03:57:40;;;;;;;10.73;2.50;;;16.30;92.30;;;;;;5014787;28;20100;-82
2023/12/13 04:00:07;;;;;;;14.77;2.60;;;16.30;92.40;;;;;;5015207;28;20038;-85
2023/12/13 04:02:34;;;;;;;10.35;3.03;;;16.30;92.30;;;;;;5015188;28;20093;-84
2023/12/13 04:04:59;;;;;;;10.32;2.33;;;16.40;92.30;;;;;;5014827;28;20034;-83
2023/12/13 04:07:25;;;;;;;13.82;2.65;;;16.40;92.20;;;;;;5015214;28;20142;-83
2023/12/13 04:09:51;;;;;;;9.32;2.40;;;16.40;92.30;;;;;;5014954;28;20034;-83
2023/12/13 04:12:17;;;;;;;10.48;2.63;;;16.30;92.20;;;;;;5014609;28;20394;-83
2023/12/13 04:14:42;;;;;;;13.77;3.17;;;16.40;92.30;;;;;;5014716;28;20046;-82
2023/12/13 04:17:08;;;;;;;9.68;2.55;;;16.30;92.30;;;;;;5014621;28;20116;-83
2023/12/13 04:19:34;;;;;;;9.05;2.25;;;16.30;92.20;;;;;;5015013;28;20069;-83
2023/12/13 04:21:59;;;;;;;8.15;2.50;;;16.30;92.20;;;;;;5015129;28;20062;-82
2023/12/13 04:24:25;;;;;;;9.70;2.22;;;16.30;92.30;;;;;;5015167;28;20042;-83
2023/12/13 04:26:51;;;;;;;11.75;2.72;;;16.30;92.40;;;;;;5015326;28;20034;-83
2023/12/13 04:29:17;;;;;;;12.90;2.65;;;16.40;92.30;;;;;;5015145;28;20112;-82
2023/12/13 04:31:42;;;;;;;12.57;2.50;;;16.40;92.30;;;;;;5013930;28;20038;-82
2023/12/13 04:34:08;;;;;;;10.25;2.70;;;16.30;92.20;;;;;;5014508;28;20084;-83
2023/12/13 04:36:34;;;;;;;12.93;2.35;;;16.30;92.20;;;;;;5014264;28;20084;-82
2023/12/13 04:38:59;;;;;;;11.75;2.65;;;16.30;92.50;;;;;;5014097;28;20092;-83
2023/12/13 04:41:25;;;;;;;8.88;2.13;;;16.30;92.30;;;;;;5013924;28;20108;-83
2023/12/13 04:43:51;;;;;;;9.40;2.35;;;16.40;92.20;;;;;;5014138;28;20068;-83
2023/12/13 04:46:17;;;;;;;12.30;3.53;;;16.40;92.00;;;;;;5014300;28;20045;-82
2023/12/13 04:48:43;;;;;;;10.85;3.97;;;16.40;92.10;;;;;;5014206;28;20096;-82
2023/12/13 04:51:09;;;;;;;11.82;2.92;;;16.40;92.10;;;;;;5013573;28;20061;-83
2023/12/13 04:53:35;;;;;;;11.30;2.85;;;16.30;92.00;;;;;;5013943;28;20108;-82
2023/12/13 04:56:01;;;;;;;11.73;3.25;;;16.30;92.10;;;;;;5013724;28;20447;-83
2023/12/13 04:58:27;;;;;;;13.70;2.65;;;16.30;92.10;;;;;;5013480;28;20038;-83
2023/12/13 05:00:52;;;;;;;11.18;2.72;;;16.30;92.10;;;;;;5013703;28;20049;-84
2023/12/13 05:03:18;;;;;;;11.88;3.10;;;16.30;92.10;;;;;;5013914;28;20381;-83
2023/12/13 05:05:44;;;;;;;13.13;3.67;;;16.30;92.10;;;;;;5013822;28;20464;-84
2023/12/13 05:08:12;;;;;;;10.00;2.97;;;16.30;92.10;;;;;;5013943;28;20053;-83
2023/12/13 05:10:43;;;;;;;9.95;2.78;;;16.30;92.10;;;;;;5013827;28;20179;-83
2023/12/13 05:13:09;;;;;;;11.88;2.67;;;16.30;92.10;;;;;;5013953;28;20557;-84
2023/12/13 05:15:35;;;;;;;7.95;2.55;;;16.40;92.20;;;;;;5014372;28;20415;-83
2023/12/13 05:18:02;;;;;;;9.55;3.13;;;16.30;92.00;;;;;;5015426;28;20113;-83
2023/12/13 05:20:27;;;;;;;10.02;2.53;;;16.40;92.00;;;;;;5013131;28;20042;-84
2023/12/13 05:22:53;;;;;;;13.77;2.83;;;16.40;92.00;;;;;;5013810;28;20133;-86
2023/12/13 05:25:20;;;;;;;12.40;3.05;;;16.40;92.00;;;;;;5013474;28;20048;-84
2023/12/13 05:27:45;;;;;;;12.05;2.47;;;16.40;92.00;;;;;;5013338;28;20122;-84
2023/12/13 05:30:11;;;;;;;10.23;2.72;;;16.40;92.00;;;;;;5013510;28;20069;-84
2023/12/13 05:32:37;;;;;;;15.63;2.95;;;16.40;92.00;;;;;;5013751;28;20036;-82
2023/12/13 05:35:03;;;;;;;9.50;2.33;;;16.40;92.00;;;;;;5013008;28;20026;-85
2023/12/13 05:37:29;;;;;;;10.80;2.80;;;16.40;92.00;;;;;;5013724;28;20030;-85
2023/12/13 05:39:55;;;;;;;9.98;2.80;;;16.40;92.10;;;;;;5013626;28;20518;-87
2023/12/13 05:42:20;;;;;;;10.75;2.38;;;16.40;92.00;;;;;;5013724;28;20044;-85
2023/12/13 05:44:49;;;;;;;18.20;3.25;;;16.40;92.10;;;;;;5012734;28;20372;-84
2023/12/13 05:47:15;;;;;;;10.45;2.80;;;16.50;91.90;;;;;;5013877;28;20046;-84
2023/12/13 05:49:40;;;;;;;12.00;3.10;;;16.40;92.10;;;;;;5013914;28;20029;-84
2023/12/13 05:52:06;;;;;;;10.73;2.72;;;16.40;92.20;;;;;;5020568;28;20443;-82
2023/12/13 05:54:33;;;;;;;16.60;3.63;;;16.40;92.20;;;;;;5024089;28;20562;-83
2023/12/13 05:56:59;;;;;;;12.90;3.40;;;16.40;92.30;;;;;;5013138;28;20037;-85
2023/12/13 05:59:24;;;;;;;17.95;3.50;;;16.40;92.20;;;;;;5014405;28;20077;-83
2023/12/13 06:01:50;;;;;;;9.30;3.30;;;16.30;92.30;;;;;;5016042;28;20034;-83
2023/12/13 06:04:16;;;;;;;11.40;3.25;;;16.40;92.40;;;;;;5015974;28;20116;-84
2023/12/13 06:06:45;;;;;;;11.18;3.53;;;16.30;92.40;;;;;;5015345;28;20029;-85
2023/12/13 06:09:11;;;;;;;15.45;3.80;;;16.30;92.40;;;;;;5016153;28;20396;-84
2023/12/13 06:11:37;;;;;;;11.95;3.45;;;16.30;92.40;;;;;;5021655;28;20046;-83
2023/12/13 06:14:03;;;;;;;16.83;3.92;;;16.40;92.60;;;;;;5018087;28;20045;-86
2023/12/13 06:16:29;;;;;;;13.27;3.35;;;16.40;92.70;;;;;;5019595;28;20030;-85
2023/12/13 06:18:54;;;;;;;11.15;3.00;;;16.40;92.60;;;;;;5017617;28;20073;-86
2023/12/13 06:21:20;;;;;;;14.95;3.45;;;16.40;92.60;;;;;;5014579;28;20424;-86
2023/12/13 06:23:46;;;;;;;14.88;3.35;;;16.40;92.60;;;;;;5013548;28;20057;-86
2023/12/13 06:26:11;;;;;;;11.82;3.08;;;16.40;92.50;;;;;;5015775;28;20476;-85
2023/12/13 06:28:37;;;;;;;17.10;4.53;;;16.40;92.50;;;;;;5012633;28;20034;-79
2023/12/13 06:31:03;;;;;;;12.35;3.28;;;16.40;92.40;;;;;;5013062;28;20042;-81
2023/12/13 06:33:29;;;;;;;11.45;2.83;;;16.40;92.40;;;;;;5012716;28;20056;-85
2023/12/13 06:35:55;;;;;;;12.77;2.70;;;16.40;92.40;;;;;;5013926;28;20492;-85
2023/12/13 06:38:21;;;;;;;11.60;3.17;;;16.40;92.50;;;;;;5013603;28;20054;-87
2023/12/13 06:40:47;;;;;;;15.55;3.10;;;16.30;92.50;;;;;;5013140;28;20038;-82
2023/12/13 06:43:13;;;;;;;17.20;4.03;;;16.30;92.50;;;;;;5012174;28;20044;-82
2023/12/13 06:45:38;;;;;;;15.70;3.78;;;16.30;92.60;;;;;;5012668;28;20492;-82
2023/12/13 06:48:06;;;;;;;12.65;3.65;;;16.20;92.60;;;;;;5012866;28;20034;-84
2023/12/13 06:50:32;;;;;;;16.85;4.15;;;16.20;92.50;;;;;;5012316;28;20061;-81
2023/12/13 06:52:58;;;;;;;11.55;3.63;;;16.20;92.60;;;;;;5012618;28;20038;-83
2023/12/13 06:55:24;;;;;;;11.32;3.53;;;16.30;92.60;;;;;;5013855;28;20100;-81
2023/12/13 06:57:50;;;;;;;14.13;3.65;;;16.30;92.60;;;;;;5015728;28;20037;-82
2023/12/13 07:00:21;;;;;;;14.00;3.58;;;16.30;92.50;;;;;;5015636;28;20440;-82
2023/12/13 07:02:47;;;;;;;9.38;3.03;;;16.40;92.50;;;;;;5015802;28;20034;-81
2023/12/13 07:05:13;;;;;;;13.63;3.97;;;16.40;92.50;;;;;;5015774;28;20034;-82
2023/12/13 07:07:39;;;;;;;14.32;4.00;;;16.40;92.40;;;;;;5015818;28;20033;-82
2023/12/13 07:10:05;;;;;;;9.82;3.55;;;16.40;92.40;;;;;;5016353;28;20495;-81
2023/12/13 07:12:30;;;;;;;14.35;5.00;;;16.40;92.30;;;;;;5016776;28;20046;-83
2023/12/13 07:14:56;;;;;;;15.70;4.15;;;16.50;92.30;;;;;;5017582;28;20037;-81
2023/12/13 07:17:23;;;;;;;14.85;3.47;;;16.50;92.30;;;;;;5016039;28;20033;-83
2023/12/13 07:19:49;;;;;;;12.32;3.47;;;16.50;92.30;;;;;;5015694;28;20045;-82
2023/12/13 07:22:15;;;;;;;15.48;4.28;;;16.60;92.20;;;;;;5015933;28;20456;-82
2023/12/13 07:24:41;;;;;;;12.80;3.70;;;16.60;92.10;;;;;;5015879;28;20041;-82
2023/12/13 07:27:07;;;;;;;13.13;3.72;;;16.60;92.10;;;;;;5015545;28;20480;-81
2023/12/13 07:29:33;;;;;;;13.68;3.88;;;16.70;92.20;;;;;;5016025;28;20065;-82
2023/12/13 07:31:59;;;;;;;17.23;3.25;;;16.70;92.10;;;;;;5016292;28;20041;-80
2023/12/13 07:34:25;;;;;;;13.27;4.03;;;16.70;92.10;;;;;;5016004;28;20046;-82
2023/12/13 07:36:53;;;;;;;15.70;3.78;;;16.70;92.20;;;;;;5016241;28;20391;-80
2023/12/13 07:39:19;;;;;;;14.40;3.80;;;16.80;92.20;;;;;;5015430;28;20415;-73
2023/12/13 07:41:45;;;;;;;17.00;3.92;;;16.80;92.10;;;;;;5015260;28;20034;-82
2023/12/13 07:44:10;;;;;;;11.50;3.35;;;16.90;92.10;;;;;;5015572;28;20483;-82
2023/12/13 07:46:38;;;;;;;16.13;4.05;;;16.90;92.00;;;;;;5016175;28;20042;-81
2023/12/13 07:49:04;;;;;;;20.25;3.90;;;17.00;92.00;;;;;;5015663;28;20403;-82
2023/12/13 07:51:33;;;;;;;11.98;3.45;;;17.00;92.00;;;;;;5015815;28;20435;-84
2023/12/13 07:54:00;;;;;;;14.70;4.20;;;17.10;91.90;;;;;;5015911;28;20451;-83
2023/12/13 07:56:26;;;;;;;13.10;3.80;;;17.10;91.80;;;;;;5014658;28;20030;-83
2023/12/13 07:58:52;;;;;;;11.88;3.65;;;17.10;91.80;;;;;;5014562;28;20069;-82
2023/12/13 08:01:18;;;;;;;21.15;4.30;;;17.20;91.80;;;;;;5015892;28;20065;-83
2023/12/13 08:03:43;;;;;;;14.52;3.92;;;17.20;91.70;;;;;;5018151;28;20036;-72
2023/12/13 08:06:14;;;;;;;11.68;3.45;;;17.20;91.70;;;;;;5015146;28;20058;-75
2023/12/13 08:08:41;;;;;;;16.70;4.00;;;17.30;91.70;;;;;;5005269;28;20073;-74
2023/12/13 08:11:07;;;;;;;10.88;3.25;;;17.30;91.70;;;;;;4994431;28;20117;-73
2023/12/13 08:13:33;;;;;;;16.80;4.38;;;17.40;91.60;;;;;;4994534;28;20117;-82
2023/12/13 08:15:59;;;;;;;16.90;3.63;;;17.40;91.70;;;;;;4994856;28;20101;-77
2023/12/13 08:18:25;;;;;;;15.35;3.70;;;17.40;91.60;;;;;;4994232;28;20129;-75
2023/12/13 08:20:51;;;;;;;13.18;4.03;;;17.50;91.60;;;;;;4994308;28;20230;-75
2023/12/13 08:23:16;;;;;;;13.50;5.20;;;17.50;91.50;;;;;;4994722;28;20042;-81
2023/12/13 08:25:42;;;;;;;20.15;5.32;;;17.50;91.50;;;;;;4994494;28;20080;-75
2023/12/13 08:28:08;;;;;;;18.58;5.70;;;17.60;91.40;;;;;;4994246;28;20039;-74
2023/12/13 08:30:34;;;;;;;13.52;6.30;;;17.60;91.40;;;;;;4994436;28;20034;-74
2023/12/13 08:33:00;;;;;;;19.85;6.78;;;17.70;91.40;;;;;;4994116;28;20034;-74
2023/12/13 08:35:26;;;;;;;16.60;5.15;;;17.70;91.40;;;;;;4993942;28;20366;-73
2023/12/13 08:37:52;;;;;;;16.02;5.07;;;17.70;91.30;;;;;;4994495;28;20073;-72
2023/12/13 08:40:18;;;;;;;16.30;5.22;;;17.80;91.40;;;;;;4994122;28;20046;-73
2023/12/13 08:42:44;;;;;;;14.05;4.18;;;17.80;91.30;;;;;;4993884;28;20106;-73
2023/12/13 08:45:10;;;;;;;16.27;4.00;;;17.90;91.30;;;;;;4993974;28;20031;-74
2023/12/13 08:47:37;;;;;;;18.20;4.18;;;17.90;91.30;;;;;;4994338;28;20095;-75
2023/12/13 08:50:03;;;;;;;20.48;4.50;;;17.90;91.30;;;;;;4993693;28;21075;-74
2023/12/13 08:52:29;;;;;;;16.48;3.95;;;18.00;91.30;;;;;;4993711;28;20030;-75
2023/12/13 08:54:55;;;;;;;20.02;4.28;;;18.00;91.20;;;;;;4993961;28;20096;-74
2023/12/13 08:57:21;;;;;;;12.70;3.58;;;18.00;91.30;;;;;;4993830;28;20137;-76
2023/12/13 08:59:47;;;;;;;14.63;3.58;;;18.00;91.10;;;;;;4976007;28;20210;-74
2023/12/13 09:02:12;;;;;;;14.38;3.70;;;18.10;91.00;;;;;;4993445;28;20495;-74
2023/12/13 09:04:38;;;;;;;20.30;4.22;;;18.10;91.00;;;;;;4993742;28;20034;-73
2023/12/13 09:07:04;;;;;;;15.15;4.47;;;18.10;90.90;;;;;;4993997;28;20030;-74
2023/12/13 09:09:32;;;;;;;12.52;3.50;;;18.10;90.80;;;;;;4993607;28;20045;-74
2023/12/13 09:11:59;;;;;;;14.10;3.92;;;18.20;90.80;;;;;;4993536;28;20054;-74
2023/12/13 09:14:25;;;;;;;14.23;4.32;;;18.20;90.70;;;;;;4993582;28;20427;-75
2023/12/13 09:16:51;;;;;;;16.23;4.40;;;18.20;90.50;;;;;;4993536;28;20440;-75
2023/12/13 09:19:17;;;;;;;14.95;4.15;;;18.30;90.60;;;;;;4992608;28;20042;-72
2023/12/13 09:21:42;;;;;;;14.23;3.97;;;18.30;90.50;;;;;;4993173;28;20034;-74
2023/12/13 09:24:08;;;;;;;13.75;3.42;;;18.40;90.40;;;;;;4993500;28;20061;-75
2023/12/13 09:26:37;;;;;;;16.50;3.50;;;18.40;90.20;;;;;;4993593;28;20680;-74
2023/12/13 09:29:04;;;;;;;11.18;3.53;;;18.40;90.00;;;;;;4993298;28;20039;-74
2023/12/13 09:31:30;;;;;;;14.15;3.47;;;18.40;89.80;;;;;;4993691;28;20444;-75
2023/12/13 09:33:57;;;;;;;12.70;3.33;;;18.50;89.80;;;;;;4993510;28;20038;-75
2023/12/13 09:36:22;;;;;;;11.27;3.00;;;18.50;89.50;;;;;;4993452;28;20053;-74
2023/12/13 09:38:48;;;;;;;12.13;4.07;;;18.50;89.20;;;;;;4993193;28;20492;-76
2023/12/13 09:41:24;;;;;;;13.13;3.53;;;18.50;89.00;;;;;;4993390;28;20062;-76
2023/12/13 09:43:50;;;;;;;12.82;3.92;;;18.60;88.90;;;;;;4975721;28;20038;-75
2023/12/13 09:46:20;;;;;;;18.60;5.85;;;18.60;88.80;;;;;;4993385;28;20045;-75
2023/12/13 09:48:46;;;;;;;20.52;9.45;;;18.60;88.90;;;;;;4993315;28;20031;-74
2023/12/13 09:51:12;;;;;;;30.02;12.02;;;18.70;88.80;;;;;;4993459;28;20060;-75
2023/12/13 09:53:40;;;;;;;29.95;13.00;;;18.70;88.70;;;;;;4993057;28;20377;-75
2023/12/13 09:56:10;;;;;;;32.45;14.30;;;18.70;88.50;;;;;;4993273;28;20042;-75
2023/12/13 09:58:36;;;;;;;23.42;10.60;;;18.70;88.50;;;;;;4993225;28;20039;-73
2023/12/13 10:01:14;;;;;;;21.73;8.13;;;18.70;88.50;;;;;;4993177;28;20037;-74
2023/12/13 10:03:40;;;;;;;16.80;5.45;;;18.80;89.00;;;;;;4993005;28;20035;-74
2023/12/13 10:06:09;;;;;;;17.15;6.60;;;18.80;88.70;;;;;;4993011;28;20042;-75
2023/12/13 10:08:36;;;;;;;15.38;6.15;;;18.80;88.70;;;;;;4993416;28;20504;-74
2023/12/13 10:11:04;;;;;;;18.40;5.72;;;18.80;88.90;;;;;;4993055;28;20038;-75
2023/12/13 10:13:30;;;;;;;17.55;5.88;;;18.80;89.00;;;;;;4992876;28;20034;-75
2023/12/13 10:15:56;;;;;;;18.38;4.95;;;18.80;89.10;;;;;;4975304;28;20034;-74
2023/12/13 10:18:21;;;;;;;21.85;6.30;;;18.70;89.20;;;;;;4993181;28;20053;-76
2023/12/13 10:20:47;;;;;;;21.35;6.70;;;18.80;89.70;;;;;;4992689;28;20073;-75
2023/12/13 10:23:13;;;;;;;15.85;5.88;;;18.70;89.20;;;;;;4993031;28;20093;-76
2023/12/13 10:25:40;;;;;;;14.55;6.05;;;18.80;89.40;;;;;;4992952;28;20476;-73
2023/12/13 10:28:05;;;;;;;19.77;6.55;;;18.80;89.10;;;;;;4992943;28;20048;-74
2023/12/13 10:30:34;;;;;;;16.20;7.07;;;18.80;89.20;;;;;;4994335;28;20113;-75
2023/12/13 10:33:00;;;;;;;16.73;6.38;;;18.80;89.50;;;;;;4996663;28;20040;-75
2023/12/13 10:35:25;;;;;;;17.38;6.22;;;18.80;89.10;;;;;;4996847;28;20109;-75
2023/12/13 10:37:52;;;;;;;14.90;6.15;;;18.80;89.10;;;;;;4996781;28;20117;-74
2023/12/13 10:40:20;;;;;;;18.15;5.93;;;18.80;89.00;;;;;;4996422;28;20042;-75
2023/12/13 10:42:51;;;;;;;15.00;5.47;;;18.80;89.00;;;;;;4996650;28;20096;-76
2023/12/13 10:45:19;;;;;;;14.70;5.03;;;18.90;89.00;;;;;;4996529;28;20039;-74
2023/12/13 10:47:47;;;;;;;17.58;5.95;;;18.90;88.90;;;;;;4996139;28;20042;-74
2023/12/13 10:50:14;;;;;;;17.50;5.75;;;18.90;88.90;;;;;;4996665;28;20388;-73
2023/12/13 10:52:42;;;;;;;15.38;5.25;;;18.90;88.80;;;;;;4996156;28;20433;-74
2023/12/13 10:55:08;;;;;;;15.10;5.53;;;18.90;88.90;;;;;;4996242;28;20037;-75
2023/12/13 10:57:37;;;;;;;19.27;6.30;;;18.90;88.80;;;;;;4996368;28;20403;-76
2023/12/13 11:00:05;;;;;;;19.33;5.53;;;19.00;88.80;;;;;;4996196;28;20412;-76
2023/12/13 11:02:41;;;;;;;14.82;5.40;;;19.00;88.80;;;;;;4996206;28;20499;-74
2023/12/13 11:05:07;;;;;;;14.85;5.43;;;19.00;88.70;;;;;;4996355;28;20050;-75
2023/12/13 11:07:43;;;;;;;16.92;5.38;;;19.00;88.60;;;;;;4996102;28;20043;-76
2023/12/13 11:10:10;;;;;;;14.32;4.65;;;19.00;88.50;;;;;;4995956;28;20034;-76
2023/12/13 11:12:49;;;;;;;14.82;4.70;;;19.10;88.40;;;;;;4995830;28;20052;-75
2023/12/13 11:15:16;;;;;;;12.80;4.45;;;19.10;88.50;;;;;;4996268;28;20034;-75
2023/12/13 11:17:54;;;;;;;18.58;5.15;;;19.10;88.10;;;;;;4996052;28;20080;-75
2023/12/13 11:20:20;;;;;;;14.02;4.32;;;19.10;87.90;;;;;;4995565;28;20083;-75
2023/12/13 11:22:50;;;;;;;14.68;4.20;;;19.10;87.90;;;;;;4995923;28;20057;-76
2023/12/13 11:25:16;;;;;;;15.90;3.70;;;19.20;87.70;;;;;;4995885;28;20113;-75
2023/12/13 11:27:53;;;;;;;14.73;3.85;;;19.20;87.50;;;;;;4995773;28;20034;-76
2023/12/13 11:30:21;;;;;;;13.55;4.05;;;19.20;87.30;;;;;;4978291;28;20101;-76
2023/12/13 11:32:47;;;;;;;14.73;4.18;;;19.20;87.20;;;;;;4995588;28;20054;-77
2023/12/13 11:35:15;;;;;;;15.07;4.10;;;19.20;87.10;;;;;;4995765;28;20089;-78
2023/12/13 11:37:41;;;;;;;13.45;3.42;;;19.20;86.70;;;;;;4995550;28;20026;-76
2023/12/13 11:40:09;;;;;;;11.80;3.22;;;19.30;86.70;;;;;;4995760;28;20161;-74
2023/12/13 11:42:34;;;;;;;15.18;3.67;;;19.30;86.60;;;;;;4994629;28;20111;-72
2023/12/13 11:45:00;;;;;;;12.35;3.47;;;19.30;86.20;;;;;;4995423;28;20592;-74
2023/12/13 11:47:26;;;;;;;8.80;3.53;;;19.30;86.00;;;;;;4995306;28;20542;-74
2023/12/13 11:49:52;;;;;;;10.73;3.33;;;19.30;85.70;;;;;;4995544;28;20034;-76
2023/12/13 11:52:17;;;;;;;16.75;3.72;;;19.30;85.70;;;;;;4977798;28;20034;-74
2023/12/13 11:54:43;;;;;;;11.70;3.80;;;19.30;85.50;;;;;;4995350;28;20038;-74
2023/12/13 11:57:19;;;;;;;11.32;2.70;;;19.30;85.60;;;;;;4995322;28;20069;-74
2023/12/13 11:59:46;;;;;;;10.75;3.05;;;19.40;85.50;;;;;;4995528;28;20038;-78
2023/12/13 12:02:19;;;;;;;11.48;3.42;;;19.30;85.30;;;;;;4995547;28;20117;-77
2023/12/13 12:04:47;;;;;;;12.75;3.78;;;19.30;85.30;;;;;;4994924;28;20041;-78
2023/12/13 12:07:17;;;;;;;13.38;3.88;;;19.30;85.40;;;;;;4995411;28;20433;-77
2023/12/13 12:09:50;;;;;;;11.40;3.40;;;19.30;85.60;;;;;;4995515;28;20109;-77
2023/12/13 12:12:17;;;;;;;12.13;3.70;;;19.30;85.80;;;;;;4995454;28;20091;-77
2023/12/13 12:14:47;;;;;;;12.30;3.50;;;19.20;85.70;;;;;;4995320;28;20049;-79
2023/12/13 12:17:14;;;;;;;11.57;3.90;;;19.20;85.90;;;;;;4995079;28;20081;-78
2023/12/13 12:19:40;;;;;;;15.27;3.55;;;19.20;85.80;;;;;;4995516;28;20042;-80
2023/12/13 12:22:06;;;;;;;12.63;3.15;;;19.30;86.00;;;;;;4995069;28;20066;-81
2023/12/13 12:24:36;;;;;;;13.30;4.32;;;19.30;86.20;;;;;;4995142;28;20373;-75
2023/12/13 12:27:11;;;;;;;11.70;4.43;;;19.30;86.30;;;;;;5005552;28;20471;-77
2023/12/13 12:29:38;;;;;;;15.48;5.13;;;19.30;86.40;;;;;;5014148;28;20112;-78
2023/12/13 12:32:08;;;;;;;16.95;5.55;;;19.30;86.50;;;;;;5014182;28;20507;-76
2023/12/13 12:34:36;;;;;;;12.38;4.65;;;19.30;86.40;;;;;;5014067;28;20030;-79